sensor_id;sensor_type;location;lat;lon;timestamp;temperature;humidity
18613;DHT22;9436;52.152;21.032;2022-10-15T00:01:22;11.10;99.90
18613;DHT22;9436;52.152;21.032;2022-10-15T00:03:51;11.10;99.90
18613;DHT22;9436;52.152;21.032;2022-10-15T00:06:19;11.00;99.90
18613;DHT22;9436;52.152;21.032;2022-10-15T00:08:47;11.00;99.90
18613;DHT22;9436;52.152;21.032;2022-10-15T00:11:16;11.00;99.90
18613;DHT22;9436;52.152;21.032;2022-10-15T00:13:43;11.00;99.90
18613;DHT22;9436;52.152;21.032;2022-10-15T00:16:13;11.00;99.90
18613;DHT22;9436;52.152;21.032;2022-10-15T00:18:41;10.90;99.90
18613;DHT22;9436;52.152;21.032;2022-10-15T00:21:12;11.00;99.90
18613;DHT22;9436;52.152;21.032;2022-10-15T00:23:40;11.00;99.90
18613;DHT22;9436;52.152;21.032;2022-10-15T00:26:09;11.00;99.90
18613;DHT22;9436;52.152;21.032;2022-10-15T00:28:37;11.00;99.90
18613;DHT22;9436;52.152;21.032;2022-10-15T00:31:07;10.90;99.90
18613;DHT22;9436;52.152;21.032;2022-10-15T00:33:34;10.90;99.90
18613;DHT22;9436;52.152;21.032;2022-10-15T00:36:04;11.00;99.90
18613;DHT22;9436;52.152;21.032;2022-10-15T00:38:33;10.90;99.90
18613;DHT22;9436;52.152;21.032;2022-10-15T00:41:00;11.00;99.90
18613;DHT22;9436;52.152;21.032;2022-10-15T00:43:39;10.90;99.90
18613;DHT22;9436;52.152;21.032;2022-10-15T00:46:16;10.90;99.90
18613;DHT22;9436;52.152;21.032;2022-10-15T00:48:45;10.90;99.90
18613;DHT22;9436;52.152;21.032;2022-10-15T00:51:14;10.80;99.90
18613;DHT22;9436;52.152;21.032;2022-10-15T00:53:44;10.80;99.90
18613;DHT22;9436;52.152;21.032;2022-10-15T00:56:11;10.80;99.90
18613;DHT22;9436;52.152;21.032;2022-10-15T00:58:39;10.80;99.90
18613;DHT22;9436;52.152;21.032;2022-10-15T01:01:06;10.80;99.90
18613;DHT22;9436;52.152;21.032;2022-10-15T01:03:33;10.90;99.90
18613;DHT22;9436;52.152;21.032;2022-10-15T01:06:01;10.80;99.90
18613;DHT22;9436;52.152;21.032;2022-10-15T01:08:28;10.80;99.90
18613;DHT22;9436;52.152;21.032;2022-10-15T01:11:08;10.90;99.90
18613;DHT22;9436;52.152;21.032;2022-10-15T01:13:40;10.80;99.90
18613;DHT22;9436;52.152;21.032;2022-10-15T01:16:17;10.80;99.90
18613;DHT22;9436;52.152;21.032;2022-10-15T01:18:48;10.80;99.90
18613;DHT22;9436;52.152;21.032;2022-10-15T01:21:21;10.70;99.90
18613;DHT22;9436;52.152;21.032;2022-10-15T01:27:16;10.80;99.90
18613;DHT22;9436;52.152;21.032;2022-10-15T01:33:04;10.80;99.90
18613;DHT22;9436;52.152;21.032;2022-10-15T01:35:41;10.80;99.90
18613;DHT22;9436;52.152;21.032;2022-10-15T01:38:19;10.60;99.90
18613;DHT22;9436;52.152;21.032;2022-10-15T01:40:50;10.60;99.90
18613;DHT22;9436;52.152;21.032;2022-10-15T01:43:26;10.50;99.90
18613;DHT22;9436;52.152;21.032;2022-10-15T01:45:57;10.60;99.90
18613;DHT22;9436;52.152;21.032;2022-10-15T01:48:30;10.60;99.90
18613;DHT22;9436;52.152;21.032;2022-10-15T01:51:02;10.70;99.90
18613;DHT22;9436;52.152;21.032;2022-10-15T01:53:32;10.60;99.90
18613;DHT22;9436;52.152;21.032;2022-10-15T01:56:03;10.70;99.90
18613;DHT22;9436;52.152;21.032;2022-10-15T01:58:31;10.70;99.90
18613;DHT22;9436;52.152;21.032;2022-10-15T02:00:59;10.70;99.90
18613;DHT22;9436;52.152;21.032;2022-10-15T02:03:26;10.60;99.90
18613;DHT22;9436;52.152;21.032;2022-10-15T02:06:01;10.60;99.90
18613;DHT22;9436;52.152;21.032;2022-10-15T02:08:36;10.70;99.90
18613;DHT22;9436;52.152;21.032;2022-10-15T02:11:09;10.70;99.90
18613;DHT22;9436;52.152;21.032;2022-10-15T02:13:47;10.60;99.90
18613;DHT22;9436;52.152;21.032;2022-10-15T02:16:21;10.50;99.90
18613;DHT22;9436;52.152;21.032;2022-10-15T02:18:54;10.50;99.90
18613;DHT22;9436;52.152;21.032;2022-10-15T02:21:30;10.40;99.90
18613;DHT22;9436;52.152;21.032;2022-10-15T02:24:05;10.40;99.90
18613;DHT22;9436;52.152;21.032;2022-10-15T02:26:33;10.40;99.90
18613;DHT22;9436;52.152;21.032;2022-10-15T02:29:02;10.40;99.90
18613;DHT22;9436;52.152;21.032;2022-10-15T02:31:33;10.50;99.90
18613;DHT22;9436;52.152;21.032;2022-10-15T02:34:03;10.50;99.90
18613;DHT22;9436;52.152;21.032;2022-10-15T02:36:32;10.40;99.90
18613;DHT22;9436;52.152;21.032;2022-10-15T02:39:01;10.50;99.90
18613;DHT22;9436;52.152;21.032;2022-10-15T02:41:33;10.50;99.90
18613;DHT22;9436;52.152;21.032;2022-10-15T02:44:01;10.50;99.90
18613;DHT22;9436;52.152;21.032;2022-10-15T02:46:28;10.40;99.90
18613;DHT22;9436;52.152;21.032;2022-10-15T02:48:55;10.40;99.90
18613;DHT22;9436;52.152;21.032;2022-10-15T02:51:22;10.40;99.90
18613;DHT22;9436;52.152;21.032;2022-10-15T02:53:51;10.50;99.90
18613;DHT22;9436;52.152;21.032;2022-10-15T02:56:18;10.40;99.90
18613;DHT22;9436;52.152;21.032;2022-10-15T02:58:45;10.40;99.90
18613;DHT22;9436;52.152;21.032;2022-10-15T03:01:12;10.40;99.90
18613;DHT22;9436;52.152;21.032;2022-10-15T03:03:39;10.40;99.90
18613;DHT22;9436;52.152;21.032;2022-10-15T03:06:06;10.40;99.90
18613;DHT22;9436;52.152;21.032;2022-10-15T03:08:34;10.30;99.90
18613;DHT22;9436;52.152;21.032;2022-10-15T03:11:02;10.30;99.90
18613;DHT22;9436;52.152;21.032;2022-10-15T03:13:29;10.30;99.90
18613;DHT22;9436;52.152;21.032;2022-10-15T03:15:56;10.40;99.90
18613;DHT22;9436;52.152;21.032;2022-10-15T03:18:23;10.40;99.90
18613;DHT22;9436;52.152;21.032;2022-10-15T03:20:54;10.40;99.90
18613;DHT22;9436;52.152;21.032;2022-10-15T03:23:21;10.40;99.90
18613;DHT22;9436;52.152;21.032;2022-10-15T03:25:48;10.20;99.90
18613;DHT22;9436;52.152;21.032;2022-10-15T03:28:17;10.20;99.90
18613;DHT22;9436;52.152;21.032;2022-10-15T03:30:44;10.10;99.90
18613;DHT22;9436;52.152;21.032;2022-10-15T03:33:11;10.20;99.90
18613;DHT22;9436;52.152;21.032;2022-10-15T03:35:39;10.10;99.90
18613;DHT22;9436;52.152;21.032;2022-10-15T03:38:06;10.20;99.90
18613;DHT22;9436;52.152;21.032;2022-10-15T03:40:34;10.10;99.90
18613;DHT22;9436;52.152;21.032;2022-10-15T03:43:01;10.00;99.90
18613;DHT22;9436;52.152;21.032;2022-10-15T03:45:29;10.10;99.90
18613;DHT22;9436;52.152;21.032;2022-10-15T03:47:56;10.10;99.90
18613;DHT22;9436;52.152;21.032;2022-10-15T03:50:23;10.10;99.90
18613;DHT22;9436;52.152;21.032;2022-10-15T03:52:50;10.10;99.90
18613;DHT22;9436;52.152;21.032;2022-10-15T03:55:17;10.10;99.90
18613;DHT22;9436;52.152;21.032;2022-10-15T03:57:44;10.10;99.90
18613;DHT22;9436;52.152;21.032;2022-10-15T04:00:12;10.10;99.90
18613;DHT22;9436;52.152;21.032;2022-10-15T04:02:41;10.10;99.90
18613;DHT22;9436;52.152;21.032;2022-10-15T04:05:08;10.00;99.90
18613;DHT22;9436;52.152;21.032;2022-10-15T04:07:35;10.00;99.90
18613;DHT22;9436;52.152;21.032;2022-10-15T04:10:02;9.90;99.90
18613;DHT22;9436;52.152;21.032;2022-10-15T04:12:29;10.00;99.90
18613;DHT22;9436;52.152;21.032;2022-10-15T04:14:56;10.00;99.90
18613;DHT22;9436;52.152;21.032;2022-10-15T04:17:23;9.90;99.90
18613;DHT22;9436;52.152;21.032;2022-10-15T04:19:52;10.00;99.90
18613;DHT22;9436;52.152;21.032;2022-10-15T04:22:19;10.00;99.90
18613;DHT22;9436;52.152;21.032;2022-10-15T04:24:46;9.90;99.90
18613;DHT22;9436;52.152;21.032;2022-10-15T04:27:13;10.00;99.90
18613;DHT22;9436;52.152;21.032;2022-10-15T04:29:40;10.00;99.90
18613;DHT22;9436;52.152;21.032;2022-10-15T04:32:07;9.90;99.90
18613;DHT22;9436;52.152;21.032;2022-10-15T04:34:36;10.00;99.90
18613;DHT22;9436;52.152;21.032;2022-10-15T04:37:05;10.00;99.90
18613;DHT22;9436;52.152;21.032;2022-10-15T04:39:32;9.90;99.90
18613;DHT22;9436;52.152;21.032;2022-10-15T04:41:59;10.00;99.90
18613;DHT22;9436;52.152;21.032;2022-10-15T04:44:26;10.00;99.90
18613;DHT22;9436;52.152;21.032;2022-10-15T04:46:53;10.00;99.90
18613;DHT22;9436;52.152;21.032;2022-10-15T04:49:20;10.00;99.90
18613;DHT22;9436;52.152;21.032;2022-10-15T04:51:47;10.00;99.90
18613;DHT22;9436;52.152;21.032;2022-10-15T04:54:15;10.00;99.90
18613;DHT22;9436;52.152;21.032;2022-10-15T04:56:42;10.10;99.90
18613;DHT22;9436;52.152;21.032;2022-10-15T04:59:10;10.00;99.90
18613;DHT22;9436;52.152;21.032;2022-10-15T05:01:37;10.10;99.90
18613;DHT22;9436;52.152;21.032;2022-10-15T05:04:04;10.10;99.90
18613;DHT22;9436;52.152;21.032;2022-10-15T05:06:31;10.10;99.90
18613;DHT22;9436;52.152;21.032;2022-10-15T05:08:58;10.10;99.90
18613;DHT22;9436;52.152;21.032;2022-10-15T05:11:28;10.20;99.90
18613;DHT22;9436;52.152;21.032;2022-10-15T05:13:56;10.10;99.90
18613;DHT22;9436;52.152;21.032;2022-10-15T05:16:25;10.20;99.90
18613;DHT22;9436;52.152;21.032;2022-10-15T05:18:56;10.20;99.90
18613;DHT22;9436;52.152;21.032;2022-10-15T05:21:24;10.30;99.90
18613;DHT22;9436;52.152;21.032;2022-10-15T05:23:51;10.30;99.90
18613;DHT22;9436;52.152;21.032;2022-10-15T05:26:20;10.20;99.90
18613;DHT22;9436;52.152;21.032;2022-10-15T05:28:49;10.20;99.90
18613;DHT22;9436;52.152;21.032;2022-10-15T05:31:18;10.20;99.90
18613;DHT22;9436;52.152;21.032;2022-10-15T05:33:45;10.30;99.90
18613;DHT22;9436;52.152;21.032;2022-10-15T05:36:14;10.30;99.90
18613;DHT22;9436;52.152;21.032;2022-10-15T05:38:42;10.30;99.90
18613;DHT22;9436;52.152;21.032;2022-10-15T05:41:09;10.30;99.90
18613;DHT22;9436;52.152;21.032;2022-10-15T05:43:36;10.40;99.90
18613;DHT22;9436;52.152;21.032;2022-10-15T05:46:05;10.30;99.90
18613;DHT22;9436;52.152;21.032;2022-10-15T05:48:32;10.30;99.90
18613;DHT22;9436;52.152;21.032;2022-10-15T05:51:00;10.40;99.90
18613;DHT22;9436;52.152;21.032;2022-10-15T05:53:28;10.40;99.90
18613;DHT22;9436;52.152;21.032;2022-10-15T05:55:55;10.50;99.90
18613;DHT22;9436;52.152;21.032;2022-10-15T05:58:23;10.60;99.90
18613;DHT22;9436;52.152;21.032;2022-10-15T06:00:53;10.60;99.90
18613;DHT22;9436;52.152;21.032;2022-10-15T06:03:22;10.60;99.90
18613;DHT22;9436;52.152;21.032;2022-10-15T06:05:50;10.70;99.90
18613;DHT22;9436;52.152;21.032;2022-10-15T06:08:17;10.80;99.90
18613;DHT22;9436;52.152;21.032;2022-10-15T06:10:44;10.80;99.90
18613;DHT22;9436;52.152;21.032;2022-10-15T06:13:12;10.90;99.90
18613;DHT22;9436;52.152;21.032;2022-10-15T06:15:40;11.00;99.90
18613;DHT22;9436;52.152;21.032;2022-10-15T06:18:07;11.10;99.90
18613;DHT22;9436;52.152;21.032;2022-10-15T06:20:36;11.10;99.90
18613;DHT22;9436;52.152;21.032;2022-10-15T06:23:04;11.20;99.90
18613;DHT22;9436;52.152;21.032;2022-10-15T06:25:32;11.30;99.90
18613;DHT22;9436;52.152;21.032;2022-10-15T06:28:00;11.30;99.90
18613;DHT22;9436;52.152;21.032;2022-10-15T06:30:28;11.40;99.90
18613;DHT22;9436;52.152;21.032;2022-10-15T06:32:55;11.50;99.90
18613;DHT22;9436;52.152;21.032;2022-10-15T06:35:23;11.50;99.90
18613;DHT22;9436;52.152;21.032;2022-10-15T06:37:52;11.60;99.90
18613;DHT22;9436;52.152;21.032;2022-10-15T06:40:19;11.70;99.90
18613;DHT22;9436;52.152;21.032;2022-10-15T06:42:46;11.70;99.90
18613;DHT22;9436;52.152;21.032;2022-10-15T06:45:13;11.80;99.90
18613;DHT22;9436;52.152;21.032;2022-10-15T06:47:40;11.70;99.90
18613;DHT22;9436;52.152;21.032;2022-10-15T06:50:07;11.80;99.90
18613;DHT22;9436;52.152;21.032;2022-10-15T06:52:34;11.70;99.90
18613;DHT22;9436;52.152;21.032;2022-10-15T06:55:03;11.60;99.90
18613;DHT22;9436;52.152;21.032;2022-10-15T06:57:30;11.60;99.90
18613;DHT22;9436;52.152;21.032;2022-10-15T06:59:57;11.70;99.90
18613;DHT22;9436;52.152;21.032;2022-10-15T07:02:24;11.70;99.90
18613;DHT22;9436;52.152;21.032;2022-10-15T07:04:51;11.70;99.90
18613;DHT22;9436;52.152;21.032;2022-10-15T07:07:18;11.80;99.90
18613;DHT22;9436;52.152;21.032;2022-10-15T07:09:45;11.80;99.90
18613;DHT22;9436;52.152;21.032;2022-10-15T07:12:14;11.80;99.90
18613;DHT22;9436;52.152;21.032;2022-10-15T07:14:41;11.90;99.90
18613;DHT22;9436;52.152;21.032;2022-10-15T07:17:08;12.00;99.90
18613;DHT22;9436;52.152;21.032;2022-10-15T07:19:35;12.10;99.90
18613;DHT22;9436;52.152;21.032;2022-10-15T07:22:02;12.10;99.90
18613;DHT22;9436;52.152;21.032;2022-10-15T07:24:29;12.10;99.90
18613;DHT22;9436;52.152;21.032;2022-10-15T07:26:56;12.30;99.90
18613;DHT22;9436;52.152;21.032;2022-10-15T07:29:24;12.40;99.90
18613;DHT22;9436;52.152;21.032;2022-10-15T07:31:51;12.40;99.90
18613;DHT22;9436;52.152;21.032;2022-10-15T07:34:19;12.40;99.90
18613;DHT22;9436;52.152;21.032;2022-10-15T07:36:47;12.50;99.90
18613;DHT22;9436;52.152;21.032;2022-10-15T07:39:14;12.50;99.90
18613;DHT22;9436;52.152;21.032;2022-10-15T07:41:43;12.60;99.90
18613;DHT22;9436;52.152;21.032;2022-10-15T07:44:10;12.80;99.90
18613;DHT22;9436;52.152;21.032;2022-10-15T07:46:39;13.00;99.90
18613;DHT22;9436;52.152;21.032;2022-10-15T07:49:06;13.10;99.90
18613;DHT22;9436;52.152;21.032;2022-10-15T07:51:34;13.20;99.90
18613;DHT22;9436;52.152;21.032;2022-10-15T07:54:01;13.30;99.90
18613;DHT22;9436;52.152;21.032;2022-10-15T07:56:28;13.30;99.90
18613;DHT22;9436;52.152;21.032;2022-10-15T07:58:55;13.40;99.90
18613;DHT22;9436;52.152;21.032;2022-10-15T08:01:22;13.50;99.90
18613;DHT22;9436;52.152;21.032;2022-10-15T08:03:50;13.60;99.90
18613;DHT22;9436;52.152;21.032;2022-10-15T08:06:17;13.50;99.90
18613;DHT22;9436;52.152;21.032;2022-10-15T08:08:44;13.60;99.90
18613;DHT22;9436;52.152;21.032;2022-10-15T08:11:14;13.60;99.90
18613;DHT22;9436;52.152;21.032;2022-10-15T08:13:42;13.70;99.90
18613;DHT22;9436;52.152;21.032;2022-10-15T08:16:11;13.70;99.90
18613;DHT22;9436;52.152;21.032;2022-10-15T08:18:38;13.80;99.90
18613;DHT22;9436;52.152;21.032;2022-10-15T08:21:07;13.80;99.90
18613;DHT22;9436;52.152;21.032;2022-10-15T08:23:34;13.80;99.90
18613;DHT22;9436;52.152;21.032;2022-10-15T08:26:01;13.80;99.90
18613;DHT22;9436;52.152;21.032;2022-10-15T08:28:30;13.80;99.90
18613;DHT22;9436;52.152;21.032;2022-10-15T08:30:58;13.90;99.90
18613;DHT22;9436;52.152;21.032;2022-10-15T08:33:25;14.10;99.90
18613;DHT22;9436;52.152;21.032;2022-10-15T08:35:52;14.10;99.90
18613;DHT22;9436;52.152;21.032;2022-10-15T08:38:20;14.20;99.90
18613;DHT22;9436;52.152;21.032;2022-10-15T08:40:48;14.20;99.90
18613;DHT22;9436;52.152;21.032;2022-10-15T08:43:20;14.30;99.90
18613;DHT22;9436;52.152;21.032;2022-10-15T08:45:50;14.40;99.90
18613;DHT22;9436;52.152;21.032;2022-10-15T08:48:21;14.50;99.90
18613;DHT22;9436;52.152;21.032;2022-10-15T08:50:56;14.60;99.90
18613;DHT22;9436;52.152;21.032;2022-10-15T08:53:27;14.70;99.90
18613;DHT22;9436;52.152;21.032;2022-10-15T08:55:57;14.80;99.90
18613;DHT22;9436;52.152;21.032;2022-10-15T08:58:33;14.80;99.90
18613;DHT22;9436;52.152;21.032;2022-10-15T09:01:10;14.70;99.90
18613;DHT22;9436;52.152;21.032;2022-10-15T09:03:46;14.80;99.90
18613;DHT22;9436;52.152;21.032;2022-10-15T09:06:20;14.80;99.90
18613;DHT22;9436;52.152;21.032;2022-10-15T09:08:54;14.90;99.90
18613;DHT22;9436;52.152;21.032;2022-10-15T09:11:36;14.90;99.90
18613;DHT22;9436;52.152;21.032;2022-10-15T09:14:10;15.00;99.90
18613;DHT22;9436;52.152;21.032;2022-10-15T09:16:39;14.90;99.90
18613;DHT22;9436;52.152;21.032;2022-10-15T09:19:13;14.90;99.90
18613;DHT22;9436;52.152;21.032;2022-10-15T09:21:42;14.90;99.90
18613;DHT22;9436;52.152;21.032;2022-10-15T09:24:13;15.00;99.90
18613;DHT22;9436;52.152;21.032;2022-10-15T09:26:51;15.00;99.90
18613;DHT22;9436;52.152;21.032;2022-10-15T09:29:26;15.00;99.90
18613;DHT22;9436;52.152;21.032;2022-10-15T09:32:02;15.20;99.90
18613;DHT22;9436;52.152;21.032;2022-10-15T09:34:34;15.20;99.90
18613;DHT22;9436;52.152;21.032;2022-10-15T09:37:08;15.30;99.90
18613;DHT22;9436;52.152;21.032;2022-10-15T09:39:46;15.40;99.90
18613;DHT22;9436;52.152;21.032;2022-10-15T09:42:26;15.50;99.90
18613;DHT22;9436;52.152;21.032;2022-10-15T09:44:58;15.50;99.90
18613;DHT22;9436;52.152;21.032;2022-10-15T09:47:27;15.60;99.90
18613;DHT22;9436;52.152;21.032;2022-10-15T09:49:55;15.60;99.90
18613;DHT22;9436;52.152;21.032;2022-10-15T09:52:29;15.60;99.90
18613;DHT22;9436;52.152;21.032;2022-10-15T09:55:09;15.70;99.90
18613;DHT22;9436;52.152;21.032;2022-10-15T09:57:38;15.80;99.90
18613;DHT22;9436;52.152;21.032;2022-10-15T10:00:08;15.80;99.90
18613;DHT22;9436;52.152;21.032;2022-10-15T10:02:36;15.90;99.90
18613;DHT22;9436;52.152;21.032;2022-10-15T10:05:18;15.90;99.90
18613;DHT22;9436;52.152;21.032;2022-10-15T10:07:46;15.90;99.90
18613;DHT22;9436;52.152;21.032;2022-10-15T10:10:23;15.90;99.90
18613;DHT22;9436;52.152;21.032;2022-10-15T10:12:51;16.00;99.90
18613;DHT22;9436;52.152;21.032;2022-10-15T10:15:31;15.90;99.90
18613;DHT22;9436;52.152;21.032;2022-10-15T10:17:59;16.00;99.90
18613;DHT22;9436;52.152;21.032;2022-10-15T10:20:28;15.90;99.90
18613;DHT22;9436;52.152;21.032;2022-10-15T10:22:56;15.90;99.90
18613;DHT22;9436;52.152;21.032;2022-10-15T10:25:34;16.00;99.90
18613;DHT22;9436;52.152;21.032;2022-10-15T10:28:14;16.10;99.90
18613;DHT22;9436;52.152;21.032;2022-10-15T10:30:51;16.10;99.90
18613;DHT22;9436;52.152;21.032;2022-10-15T10:33:24;16.10;99.90
18613;DHT22;9436;52.152;21.032;2022-10-15T10:35:52;16.30;99.90
18613;DHT22;9436;52.152;21.032;2022-10-15T10:38:20;16.30;99.90
18613;DHT22;9436;52.152;21.032;2022-10-15T10:40:54;16.40;99.90
18613;DHT22;9436;52.152;21.032;2022-10-15T10:43:25;16.50;99.90
18613;DHT22;9436;52.152;21.032;2022-10-15T10:45:55;16.70;99.90
18613;DHT22;9436;52.152;21.032;2022-10-15T10:48:26;16.80;99.90
18613;DHT22;9436;52.152;21.032;2022-10-15T10:51:12;16.80;99.90
18613;DHT22;9436;52.152;21.032;2022-10-15T10:53:58;17.00;99.90
18613;DHT22;9436;52.152;21.032;2022-10-15T10:56:30;17.10;99.90
18613;DHT22;9436;52.152;21.032;2022-10-15T10:59:02;17.20;99.90
18613;DHT22;9436;52.152;21.032;2022-10-15T11:01:35;17.20;99.90
18613;DHT22;9436;52.152;21.032;2022-10-15T11:04:03;17.30;99.90
18613;DHT22;9436;52.152;21.032;2022-10-15T11:06:43;17.40;99.90
18613;DHT22;9436;52.152;21.032;2022-10-15T11:09:22;17.50;99.90
18613;DHT22;9436;52.152;21.032;2022-10-15T11:12:02;17.60;99.90
18613;DHT22;9436;52.152;21.032;2022-10-15T11:14:39;17.70;99.90
18613;DHT22;9436;52.152;21.032;2022-10-15T11:17:15;17.70;99.90
18613;DHT22;9436;52.152;21.032;2022-10-15T11:19:48;17.70;99.90
18613;DHT22;9436;52.152;21.032;2022-10-15T11:22:36;17.80;99.90
18613;DHT22;9436;52.152;21.032;2022-10-15T11:25:15;17.90;99.90
18613;DHT22;9436;52.152;21.032;2022-10-15T11:27:54;18.00;99.90
18613;DHT22;9436;52.152;21.032;2022-10-15T11:30:32;18.00;99.90
18613;DHT22;9436;52.152;21.032;2022-10-15T11:33:12;18.10;99.90
18613;DHT22;9436;52.152;21.032;2022-10-15T11:35:48;18.10;99.90
18613;DHT22;9436;52.152;21.032;2022-10-15T11:38:24;18.10;99.90
18613;DHT22;9436;52.152;21.032;2022-10-15T11:41:22;18.20;99.90
18613;DHT22;9436;52.152;21.032;2022-10-15T11:44:04;18.20;99.90
18613;DHT22;9436;52.152;21.032;2022-10-15T11:46:38;18.20;99.90
18613;DHT22;9436;52.152;21.032;2022-10-15T11:49:19;18.20;99.90
18613;DHT22;9436;52.152;21.032;2022-10-15T11:52:02;18.30;99.90
18613;DHT22;9436;52.152;21.032;2022-10-15T11:54:36;18.30;99.90
18613;DHT22;9436;52.152;21.032;2022-10-15T11:57:08;18.30;99.90
18613;DHT22;9436;52.152;21.032;2022-10-15T11:59:44;18.10;99.90
18613;DHT22;9436;52.152;21.032;2022-10-15T12:02:15;18.10;99.90
18613;DHT22;9436;52.152;21.032;2022-10-15T12:04:45;18.00;99.90
18613;DHT22;9436;52.152;21.032;2022-10-15T12:07:19;17.90;99.90
18613;DHT22;9436;52.152;21.032;2022-10-15T12:09:51;17.80;99.90
18613;DHT22;9436;52.152;21.032;2022-10-15T12:12:29;17.80;99.90
18613;DHT22;9436;52.152;21.032;2022-10-15T12:15:14;17.90;99.90
18613;DHT22;9436;52.152;21.032;2022-10-15T12:17:49;17.90;99.90
18613;DHT22;9436;52.152;21.032;2022-10-15T12:20:20;17.80;99.90
18613;DHT22;9436;52.152;21.032;2022-10-15T12:22:56;17.90;99.90
18613;DHT22;9436;52.152;21.032;2022-10-15T12:25:42;17.90;99.90
18613;DHT22;9436;52.152;21.032;2022-10-15T12:28:14;17.90;99.90
18613;DHT22;9436;52.152;21.032;2022-10-15T12:30:53;17.90;99.90
18613;DHT22;9436;52.152;21.032;2022-10-15T12:33:25;17.90;99.90
18613;DHT22;9436;52.152;21.032;2022-10-15T12:35:55;17.90;99.90
18613;DHT22;9436;52.152;21.032;2022-10-15T12:38:26;17.90;99.90
18613;DHT22;9436;52.152;21.032;2022-10-15T12:41:00;17.90;99.90
18613;DHT22;9436;52.152;21.032;2022-10-15T12:43:29;17.90;99.90
18613;DHT22;9436;52.152;21.032;2022-10-15T12:46:00;17.90;99.90
18613;DHT22;9436;52.152;21.032;2022-10-15T12:48:34;17.90;99.90
18613;DHT22;9436;52.152;21.032;2022-10-15T12:54:33;17.90;99.90
18613;DHT22;9436;52.152;21.032;2022-10-15T12:57:01;17.80;99.90
18613;DHT22;9436;52.152;21.032;2022-10-15T13:02:33;17.80;99.90
18613;DHT22;9436;52.152;21.032;2022-10-15T13:05:02;17.80;99.90
18613;DHT22;9436;52.152;21.032;2022-10-15T13:07:31;17.90;99.90
18613;DHT22;9436;52.152;21.032;2022-10-15T13:10:01;17.90;99.90
18613;DHT22;9436;52.152;21.032;2022-10-15T13:12:29;17.90;99.90
18613;DHT22;9436;52.152;21.032;2022-10-15T13:15:00;17.90;99.90
18613;DHT22;9436;52.152;21.032;2022-10-15T13:17:29;17.90;99.90
18613;DHT22;9436;52.152;21.032;2022-10-15T13:19:59;17.90;99.90
18613;DHT22;9436;52.152;21.032;2022-10-15T13:22:31;18.00;99.90
18613;DHT22;9436;52.152;21.032;2022-10-15T13:24:58;18.00;99.90
18613;DHT22;9436;52.152;21.032;2022-10-15T13:27:28;18.10;99.90
18613;DHT22;9436;52.152;21.032;2022-10-15T13:29:57;18.10;99.90
18613;DHT22;9436;52.152;21.032;2022-10-15T13:32:26;18.00;99.90
18613;DHT22;9436;52.152;21.032;2022-10-15T13:34:54;18.10;99.90
18613;DHT22;9436;52.152;21.032;2022-10-15T13:37:28;18.10;99.90
18613;DHT22;9436;52.152;21.032;2022-10-15T13:39:57;18.10;99.90
18613;DHT22;9436;52.152;21.032;2022-10-15T13:42:25;18.00;99.90
18613;DHT22;9436;52.152;21.032;2022-10-15T13:44:57;17.90;99.90
18613;DHT22;9436;52.152;21.032;2022-10-15T13:47:28;17.90;99.90
18613;DHT22;9436;52.152;21.032;2022-10-15T13:50:18;17.90;99.90
18613;DHT22;9436;52.152;21.032;2022-10-15T13:52:51;17.80;99.90
18613;DHT22;9436;52.152;21.032;2022-10-15T13:55:22;17.80;99.90
18613;DHT22;9436;52.152;21.032;2022-10-15T13:57:51;17.70;99.90
18613;DHT22;9436;52.152;21.032;2022-10-15T14:00:24;17.70;99.90
18613;DHT22;9436;52.152;21.032;2022-10-15T14:03:12;17.70;99.90
18613;DHT22;9436;52.152;21.032;2022-10-15T14:05:40;17.70;99.90
18613;DHT22;9436;52.152;21.032;2022-10-15T14:08:16;17.70;99.90
18613;DHT22;9436;52.152;21.032;2022-10-15T14:10:43;17.70;99.90
18613;DHT22;9436;52.152;21.032;2022-10-15T14:13:11;17.70;99.90
18613;DHT22;9436;52.152;21.032;2022-10-15T14:15:43;17.70;99.90
18613;DHT22;9436;52.152;21.032;2022-10-15T14:18:13;17.60;99.90
18613;DHT22;9436;52.152;21.032;2022-10-15T14:20:46;17.60;99.90
18613;DHT22;9436;52.152;21.032;2022-10-15T14:23:21;17.60;99.90
18613;DHT22;9436;52.152;21.032;2022-10-15T14:25:54;17.60;99.90
18613;DHT22;9436;52.152;21.032;2022-10-15T14:28:23;17.60;99.90
18613;DHT22;9436;52.152;21.032;2022-10-15T14:30:50;17.50;99.90
18613;DHT22;9436;52.152;21.032;2022-10-15T14:33:29;17.50;99.90
18613;DHT22;9436;52.152;21.032;2022-10-15T14:36:04;17.50;99.90
18613;DHT22;9436;52.152;21.032;2022-10-15T14:38:33;17.50;99.90
18613;DHT22;9436;52.152;21.032;2022-10-15T14:41:03;17.40;99.90
18613;DHT22;9436;52.152;21.032;2022-10-15T14:43:35;17.40;99.90
18613;DHT22;9436;52.152;21.032;2022-10-15T14:46:04;17.40;99.90
18613;DHT22;9436;52.152;21.032;2022-10-15T14:48:35;17.40;99.90
18613;DHT22;9436;52.152;21.032;2022-10-15T14:51:04;17.40;99.90
18613;DHT22;9436;52.152;21.032;2022-10-15T14:53:35;17.30;99.90
18613;DHT22;9436;52.152;21.032;2022-10-15T14:56:05;17.30;99.90
18613;DHT22;9436;52.152;21.032;2022-10-15T14:58:36;17.30;99.90
18613;DHT22;9436;52.152;21.032;2022-10-15T15:01:05;17.30;99.90
18613;DHT22;9436;52.152;21.032;2022-10-15T15:03:38;17.20;99.90
18613;DHT22;9436;52.152;21.032;2022-10-15T15:06:06;17.20;99.90
18613;DHT22;9436;52.152;21.032;2022-10-15T15:08:34;17.10;99.90
18613;DHT22;9436;52.152;21.032;2022-10-15T15:11:03;17.10;99.90
18613;DHT22;9436;52.152;21.032;2022-10-15T15:13:36;17.10;99.90
18613;DHT22;9436;52.152;21.032;2022-10-15T15:16:04;17.00;99.90
18613;DHT22;9436;52.152;21.032;2022-10-15T15:18:32;17.00;99.90
18613;DHT22;9436;52.152;21.032;2022-10-15T15:21:01;17.00;99.90
18613;DHT22;9436;52.152;21.032;2022-10-15T15:23:29;17.00;99.90
18613;DHT22;9436;52.152;21.032;2022-10-15T15:25:57;17.00;99.90
18613;DHT22;9436;52.152;21.032;2022-10-15T15:28:25;17.00;99.90
18613;DHT22;9436;52.152;21.032;2022-10-15T15:30:56;16.90;99.90
18613;DHT22;9436;52.152;21.032;2022-10-15T15:33:24;16.90;99.90
18613;DHT22;9436;52.152;21.032;2022-10-15T15:35:54;16.90;99.90
18613;DHT22;9436;52.152;21.032;2022-10-15T15:38:23;16.90;99.90
18613;DHT22;9436;52.152;21.032;2022-10-15T15:41:01;16.90;99.90
18613;DHT22;9436;52.152;21.032;2022-10-15T15:43:29;16.90;99.90
18613;DHT22;9436;52.152;21.032;2022-10-15T15:45:56;16.90;99.90
18613;DHT22;9436;52.152;21.032;2022-10-15T15:48:23;16.90;99.90
18613;DHT22;9436;52.152;21.032;2022-10-15T15:50:51;16.80;99.90
18613;DHT22;9436;52.152;21.032;2022-10-15T15:53:18;16.80;99.90
18613;DHT22;9436;52.152;21.032;2022-10-15T15:55:45;16.90;99.90
18613;DHT22;9436;52.152;21.032;2022-10-15T15:58:13;16.80;99.90
18613;DHT22;9436;52.152;21.032;2022-10-15T16:00:40;16.80;99.90
18613;DHT22;9436;52.152;21.032;2022-10-15T16:03:09;16.70;99.90